Island City, Indiana
Current Conditions -  °F | °C
As of 11:15 AM on Monday 22 Dec 2014 (Local Time) from KDCY Reporting Station
Overcast Overcast  
Wind Chill: 38°   Ceiling: 2400
Heat Index: 42°   Visibility: 10mi
Dew Point: 37°   Wind: 6mph
Humidity: 83%   Direction: 140°SE
Pressure: 29.89"   Gusts: NA
Location:  39.0608°N, 87.1852°W
Report Text: KDCY 221615Z AUTO 14005KT 10SM OVC024 05/03 A2989 RMK AO2 T00530026
Loading
Personal Weather Stations






























Interactive Weather Map New forecast layout! Learn more

10-Day Weather Forecast

Advertisements
Track Severe Weather on mobile